sensor_id;sensor_type;location;lat;lon;timestamp;temperature;humidity
6018;DHT22;3037;51.068;13.780;2023-05-15T00:01:06;12.30;99.90
6018;DHT22;3037;51.068;13.780;2023-05-15T00:03:31;12.20;99.90
6018;DHT22;3037;51.068;13.780;2023-05-15T00:05:57;12.10;99.90
6018;DHT22;3037;51.068;13.780;2023-05-15T00:08:23;12.10;99.90
6018;DHT22;3037;51.068;13.780;2023-05-15T00:10:48;12.00;99.90
6018;DHT22;3037;51.068;13.780;2023-05-15T00:13:18;12.00;99.90
6018;DHT22;3037;51.068;13.780;2023-05-15T00:15:43;11.90;99.90
6018;DHT22;3037;51.068;13.780;2023-05-15T00:18:09;11.80;99.90
6018;DHT22;3037;51.068;13.780;2023-05-15T00:20:34;11.70;99.90
6018;DHT22;3037;51.068;13.780;2023-05-15T00:23:00;11.70;99.90
6018;DHT22;3037;51.068;13.780;2023-05-15T00:25:26;11.70;99.90
6018;DHT22;3037;51.068;13.780;2023-05-15T00:27:51;11.60;99.90
6018;DHT22;3037;51.068;13.780;2023-05-15T00:30:17;11.60;99.90
6018;DHT22;3037;51.068;13.780;2023-05-15T00:32:42;11.60;99.90
6018;DHT22;3037;51.068;13.780;2023-05-15T00:35:08;11.60;99.90
6018;DHT22;3037;51.068;13.780;2023-05-15T00:37:33;11.50;99.90
6018;DHT22;3037;51.068;13.780;2023-05-15T00:39:59;11.50;99.90
6018;DHT22;3037;51.068;13.780;2023-05-15T00:42:25;11.50;99.90
6018;DHT22;3037;51.068;13.780;2023-05-15T00:44:52;11.40;99.90
6018;DHT22;3037;51.068;13.780;2023-05-15T00:47:19;11.20;99.90
6018;DHT22;3037;51.068;13.780;2023-05-15T00:49:46;11.30;99.90
6018;DHT22;3037;51.068;13.780;2023-05-15T00:52:12;11.20;99.90
6018;DHT22;3037;51.068;13.780;2023-05-15T00:54:38;11.00;99.90
6018;DHT22;3037;51.068;13.780;2023-05-15T00:57:04;10.80;99.90
6018;DHT22;3037;51.068;13.780;2023-05-15T00:59:31;10.80;99.90
6018;DHT22;3037;51.068;13.780;2023-05-15T01:01:57;10.90;99.90
6018;DHT22;3037;51.068;13.780;2023-05-15T01:04:22;10.90;99.90
6018;DHT22;3037;51.068;13.780;2023-05-15T01:06:48;10.90;99.90
6018;DHT22;3037;51.068;13.780;2023-05-15T01:09:14;10.90;99.90
6018;DHT22;3037;51.068;13.780;2023-05-15T01:11:41;10.90;99.90
6018;DHT22;3037;51.068;13.780;2023-05-15T01:14:07;11.00;99.90
6018;DHT22;3037;51.068;13.780;2023-05-15T01:16:34;10.90;99.90
6018;DHT22;3037;51.068;13.780;2023-05-15T01:19:00;11.00;99.90
6018;DHT22;3037;51.068;13.780;2023-05-15T01:27:27;10.90;99.90
6018;DHT22;3037;51.068;13.780;2023-05-15T01:30:31;10.90;99.90
6018;DHT22;3037;51.068;13.780;2023-05-15T01:33:12;11.00;99.90
6018;DHT22;3037;51.068;13.780;2023-05-15T01:35:54;11.00;99.90
6018;DHT22;3037;51.068;13.780;2023-05-15T01:40:47;11.10;99.90
6018;DHT22;3037;51.068;13.780;2023-05-15T01:43:18;11.20;99.90
6018;DHT22;3037;51.068;13.780;2023-05-15T01:45:46;11.20;99.90
6018;DHT22;3037;51.068;13.780;2023-05-15T01:48:12;11.20;99.90
6018;DHT22;3037;51.068;13.780;2023-05-15T01:50:40;11.20;99.90
6018;DHT22;3037;51.068;13.780;2023-05-15T01:53:08;11.30;99.90
6018;DHT22;3037;51.068;13.780;2023-05-15T01:55:35;11.20;99.90
6018;DHT22;3037;51.068;13.780;2023-05-15T01:58:02;11.10;99.90
6018;DHT22;3037;51.068;13.780;2023-05-15T02:00:29;11.20;99.90
6018;DHT22;3037;51.068;13.780;2023-05-15T02:02:56;11.20;99.90
6018;DHT22;3037;51.068;13.780;2023-05-15T02:05:22;11.30;99.90
6018;DHT22;3037;51.068;13.780;2023-05-15T02:07:48;11.40;99.90
6018;DHT22;3037;51.068;13.780;2023-05-15T02:10:15;11.50;99.90
6018;DHT22;3037;51.068;13.780;2023-05-15T02:12:41;11.60;99.90
6018;DHT22;3037;51.068;13.780;2023-05-15T02:15:11;11.50;99.90
6018;DHT22;3037;51.068;13.780;2023-05-15T02:17:37;11.70;99.90
6018;DHT22;3037;51.068;13.780;2023-05-15T02:20:03;11.70;99.90
6018;DHT22;3037;51.068;13.780;2023-05-15T02:22:30;11.60;99.90
6018;DHT22;3037;51.068;13.780;2023-05-15T02:24:56;11.60;99.90
6018;DHT22;3037;51.068;13.780;2023-05-15T02:27:26;11.60;99.90
6018;DHT22;3037;51.068;13.780;2023-05-15T02:30:11;11.70;99.90
6018;DHT22;3037;51.068;13.780;2023-05-15T02:32:55;11.70;99.90
6018;DHT22;3037;51.068;13.780;2023-05-15T02:35:38;11.70;99.90
6018;DHT22;3037;51.068;13.780;2023-05-15T02:38:11;11.90;99.90
6018;DHT22;3037;51.068;13.780;2023-05-15T02:40:40;11.80;99.90
6018;DHT22;3037;51.068;13.780;2023-05-15T02:43:07;11.80;99.90
6018;DHT22;3037;51.068;13.780;2023-05-15T02:45:35;11.80;99.90
6018;DHT22;3037;51.068;13.780;2023-05-15T02:48:01;11.80;99.90
6018;DHT22;3037;51.068;13.780;2023-05-15T02:50:28;11.70;99.90
6018;DHT22;3037;51.068;13.780;2023-05-15T02:53:03;11.70;99.90
6018;DHT22;3037;51.068;13.780;2023-05-15T02:55:29;11.70;99.90
6018;DHT22;3037;51.068;13.780;2023-05-15T02:57:55;11.80;99.90
6018;DHT22;3037;51.068;13.780;2023-05-15T03:00:21;11.80;99.90
6018;DHT22;3037;51.068;13.780;2023-05-15T03:02:46;11.80;99.90
6018;DHT22;3037;51.068;13.780;2023-05-15T03:05:12;11.90;99.90
6018;DHT22;3037;51.068;13.780;2023-05-15T03:07:37;11.80;99.90
6018;DHT22;3037;51.068;13.780;2023-05-15T03:10:04;11.80;99.90
6018;DHT22;3037;51.068;13.780;2023-05-15T03:12:29;11.80;99.90
6018;DHT22;3037;51.068;13.780;2023-05-15T03:14:55;11.70;99.90
6018;DHT22;3037;51.068;13.780;2023-05-15T03:17:20;11.80;99.90
6018;DHT22;3037;51.068;13.780;2023-05-15T03:19:46;11.80;99.90
6018;DHT22;3037;51.068;13.780;2023-05-15T03:22:12;11.90;99.90
6018;DHT22;3037;51.068;13.780;2023-05-15T03:24:37;11.80;99.90
6018;DHT22;3037;51.068;13.780;2023-05-15T03:27:03;11.70;99.90
6018;DHT22;3037;51.068;13.780;2023-05-15T03:29:29;11.70;99.90
6018;DHT22;3037;51.068;13.780;2023-05-15T03:31:55;11.60;99.90
6018;DHT22;3037;51.068;13.780;2023-05-15T03:34:20;11.60;99.90
6018;DHT22;3037;51.068;13.780;2023-05-15T03:36:46;11.50;99.90
6018;DHT22;3037;51.068;13.780;2023-05-15T03:39:11;11.50;99.90
6018;DHT22;3037;51.068;13.780;2023-05-15T03:41:37;11.60;99.90
6018;DHT22;3037;51.068;13.780;2023-05-15T03:44:02;11.60;99.90
6018;DHT22;3037;51.068;13.780;2023-05-15T03:46:28;11.50;99.90
6018;DHT22;3037;51.068;13.780;2023-05-15T03:48:53;11.50;99.90
6018;DHT22;3037;51.068;13.780;2023-05-15T03:51:20;11.60;99.90
6018;DHT22;3037;51.068;13.780;2023-05-15T03:53:46;11.60;99.90
6018;DHT22;3037;51.068;13.780;2023-05-15T03:56:11;11.70;99.90
6018;DHT22;3037;51.068;13.780;2023-05-15T03:58:37;11.60;99.90
6018;DHT22;3037;51.068;13.780;2023-05-15T04:01:02;11.70;99.90
6018;DHT22;3037;51.068;13.780;2023-05-15T04:03:28;11.70;99.90
6018;DHT22;3037;51.068;13.780;2023-05-15T04:05:53;11.80;99.90
6018;DHT22;3037;51.068;13.780;2023-05-15T04:08:19;11.90;99.90
6018;DHT22;3037;51.068;13.780;2023-05-15T04:10:44;11.90;99.90
6018;DHT22;3037;51.068;13.780;2023-05-15T04:13:10;11.90;99.90
6018;DHT22;3037;51.068;13.780;2023-05-15T04:15:35;11.80;99.90
6018;DHT22;3037;51.068;13.780;2023-05-15T04:18:01;11.80;99.90
6018;DHT22;3037;51.068;13.780;2023-05-15T04:20:26;11.80;99.90
6018;DHT22;3037;51.068;13.780;2023-05-15T04:22:52;11.80;99.90
6018;DHT22;3037;51.068;13.780;2023-05-15T04:25:18;11.90;99.90
6018;DHT22;3037;51.068;13.780;2023-05-15T04:27:45;11.80;99.90
6018;DHT22;3037;51.068;13.780;2023-05-15T04:30:11;11.80;99.90
6018;DHT22;3037;51.068;13.780;2023-05-15T04:32:38;11.80;99.90
6018;DHT22;3037;51.068;13.780;2023-05-15T04:35:05;11.90;99.90
6018;DHT22;3037;51.068;13.780;2023-05-15T04:37:30;11.90;99.90
6018;DHT22;3037;51.068;13.780;2023-05-15T04:39:56;11.90;99.90
6018;DHT22;3037;51.068;13.780;2023-05-15T04:42:22;11.90;99.90
6018;DHT22;3037;51.068;13.780;2023-05-15T04:44:47;12.00;99.90
6018;DHT22;3037;51.068;13.780;2023-05-15T04:47:12;12.00;99.90
6018;DHT22;3037;51.068;13.780;2023-05-15T04:49:40;12.00;99.90
6018;DHT22;3037;51.068;13.780;2023-05-15T04:52:05;12.10;99.90
6018;DHT22;3037;51.068;13.780;2023-05-15T04:54:31;12.10;99.90
6018;DHT22;3037;51.068;13.780;2023-05-15T04:56:56;12.20;99.90
6018;DHT22;3037;51.068;13.780;2023-05-15T04:59:22;12.30;99.90
6018;DHT22;3037;51.068;13.780;2023-05-15T05:01:49;12.40;99.90
6018;DHT22;3037;51.068;13.780;2023-05-15T05:04:15;12.40;99.90
6018;DHT22;3037;51.068;13.780;2023-05-15T05:06:44;12.60;99.90
6018;DHT22;3037;51.068;13.780;2023-05-15T05:09:09;12.50;99.90
6018;DHT22;3037;51.068;13.780;2023-05-15T05:11:35;12.50;99.90
6018;DHT22;3037;51.068;13.780;2023-05-15T05:14:00;12.70;99.90
6018;DHT22;3037;51.068;13.780;2023-05-15T05:16:26;13.00;99.90
6018;DHT22;3037;51.068;13.780;2023-05-15T05:18:51;12.80;99.90
6018;DHT22;3037;51.068;13.780;2023-05-15T05:21:17;13.00;99.90
6018;DHT22;3037;51.068;13.780;2023-05-15T05:23:42;13.10;99.90
6018;DHT22;3037;51.068;13.780;2023-05-15T05:26:08;13.20;99.90
6018;DHT22;3037;51.068;13.780;2023-05-15T05:28:33;13.30;99.90
6018;DHT22;3037;51.068;13.780;2023-05-15T05:30:59;13.10;99.90
6018;DHT22;3037;51.068;13.780;2023-05-15T05:33:26;13.10;99.90
6018;DHT22;3037;51.068;13.780;2023-05-15T05:35:52;13.10;99.90
6018;DHT22;3037;51.068;13.780;2023-05-15T05:38:17;13.30;99.90
6018;DHT22;3037;51.068;13.780;2023-05-15T05:40:43;13.20;99.90
6018;DHT22;3037;51.068;13.780;2023-05-15T05:43:08;13.30;99.90
6018;DHT22;3037;51.068;13.780;2023-05-15T05:45:34;13.20;99.90
6018;DHT22;3037;51.068;13.780;2023-05-15T05:47:59;13.30;99.90
6018;DHT22;3037;51.068;13.780;2023-05-15T05:50:25;13.50;99.90
6018;DHT22;3037;51.068;13.780;2023-05-15T05:52:50;13.50;99.90
6018;DHT22;3037;51.068;13.780;2023-05-15T05:55:16;13.60;99.90
6018;DHT22;3037;51.068;13.780;2023-05-15T05:57:41;13.70;99.90
6018;DHT22;3037;51.068;13.780;2023-05-15T06:00:07;13.80;99.90
6018;DHT22;3037;51.068;13.780;2023-05-15T06:02:35;13.80;99.90
6018;DHT22;3037;51.068;13.780;2023-05-15T06:05:01;13.70;99.90
6018;DHT22;3037;51.068;13.780;2023-05-15T06:07:27;13.80;99.90
6018;DHT22;3037;51.068;13.780;2023-05-15T06:09:53;13.70;99.90
6018;DHT22;3037;51.068;13.780;2023-05-15T06:12:18;13.90;99.90
6018;DHT22;3037;51.068;13.780;2023-05-15T06:14:44;14.20;99.90
6018;DHT22;3037;51.068;13.780;2023-05-15T06:17:09;14.10;99.90
6018;DHT22;3037;51.068;13.780;2023-05-15T06:19:35;14.20;99.90
6018;DHT22;3037;51.068;13.780;2023-05-15T06:22:00;14.30;99.90
6018;DHT22;3037;51.068;13.780;2023-05-15T06:24:26;14.40;99.90
6018;DHT22;3037;51.068;13.780;2023-05-15T06:26:51;14.40;99.90
6018;DHT22;3037;51.068;13.780;2023-05-15T06:29:17;14.30;99.90
6018;DHT22;3037;51.068;13.780;2023-05-15T06:31:42;14.60;99.90
6018;DHT22;3037;51.068;13.780;2023-05-15T06:34:08;14.90;99.90
6018;DHT22;3037;51.068;13.780;2023-05-15T06:36:33;14.90;99.90
6018;DHT22;3037;51.068;13.780;2023-05-15T06:38:59;15.10;99.90
6018;DHT22;3037;51.068;13.780;2023-05-15T06:41:25;15.20;99.90
6018;DHT22;3037;51.068;13.780;2023-05-15T06:43:50;15.20;99.90
6018;DHT22;3037;51.068;13.780;2023-05-15T06:46:16;15.40;99.90
6018;DHT22;3037;51.068;13.780;2023-05-15T06:48:43;15.50;99.90
6018;DHT22;3037;51.068;13.780;2023-05-15T06:51:09;15.60;99.90
6018;DHT22;3037;51.068;13.780;2023-05-15T06:53:35;15.90;99.90
6018;DHT22;3037;51.068;13.780;2023-05-15T06:56:00;16.00;1.00
6018;DHT22;3037;51.068;13.780;2023-05-15T06:58:26;16.10;99.90
6018;DHT22;3037;51.068;13.780;2023-05-15T07:00:51;16.20;99.90
6018;DHT22;3037;51.068;13.780;2023-05-15T07:03:16;16.10;99.90
6018;DHT22;3037;51.068;13.780;2023-05-15T07:05:43;16.30;99.90
6018;DHT22;3037;51.068;13.780;2023-05-15T07:08:08;16.50;99.90
6018;DHT22;3037;51.068;13.780;2023-05-15T07:10:34;16.80;39.50
6018;DHT22;3037;51.068;13.780;2023-05-15T07:12:59;17.20;1.00
6018;DHT22;3037;51.068;13.780;2023-05-15T07:15:24;17.60;1.00
6018;DHT22;3037;51.068;13.780;2023-05-15T07:17:50;17.90;1.00
6018;DHT22;3037;51.068;13.780;2023-05-15T07:20:15;18.30;1.00
6018;DHT22;3037;51.068;13.780;2023-05-15T07:22:41;18.50;1.00
6018;DHT22;3037;51.068;13.780;2023-05-15T07:25:07;18.80;1.00
6018;DHT22;3037;51.068;13.780;2023-05-15T07:27:32;19.10;1.00
6018;DHT22;3037;51.068;13.780;2023-05-15T07:29:58;19.20;1.00
6018;DHT22;3037;51.068;13.780;2023-05-15T07:32:23;19.20;1.00
6018;DHT22;3037;51.068;13.780;2023-05-15T07:34:49;19.30;1.00
6018;DHT22;3037;51.068;13.780;2023-05-15T07:37:14;19.30;1.00
6018;DHT22;3037;51.068;13.780;2023-05-15T07:39:40;19.50;1.00
6018;DHT22;3037;51.068;13.780;2023-05-15T07:42:05;19.30;1.00
6018;DHT22;3037;51.068;13.780;2023-05-15T07:44:31;19.20;1.00
6018;DHT22;3037;51.068;13.780;2023-05-15T07:46:57;19.20;1.00
6018;DHT22;3037;51.068;13.780;2023-05-15T07:49:23;19.10;1.00
6018;DHT22;3037;51.068;13.780;2023-05-15T07:51:48;18.80;1.00
6018;DHT22;3037;51.068;13.780;2023-05-15T07:54:14;18.40;1.00
6018;DHT22;3037;51.068;13.780;2023-05-15T07:56:40;18.40;1.00
6018;DHT22;3037;51.068;13.780;2023-05-15T07:59:06;18.30;1.00
6018;DHT22;3037;51.068;13.780;2023-05-15T08:01:32;18.50;1.00
6018;DHT22;3037;51.068;13.780;2023-05-15T08:03:57;18.40;1.00
6018;DHT22;3037;51.068;13.780;2023-05-15T08:06:23;18.50;1.00
6018;DHT22;3037;51.068;13.780;2023-05-15T08:08:48;18.40;1.00
6018;DHT22;3037;51.068;13.780;2023-05-15T08:11:14;18.30;1.00
6018;DHT22;3037;51.068;13.780;2023-05-15T08:13:39;18.40;1.00
6018;DHT22;3037;51.068;13.780;2023-05-15T08:16:05;18.30;1.00
6018;DHT22;3037;51.068;13.780;2023-05-15T08:18:30;18.40;1.00
6018;DHT22;3037;51.068;13.780;2023-05-15T08:20:56;18.10;1.00
6018;DHT22;3037;51.068;13.780;2023-05-15T08:23:21;18.00;1.00
6018;DHT22;3037;51.068;13.780;2023-05-15T08:25:47;18.00;1.00
6018;DHT22;3037;51.068;13.780;2023-05-15T08:28:12;18.40;1.00
6018;DHT22;3037;51.068;13.780;2023-05-15T08:30:38;18.60;1.00
6018;DHT22;3037;51.068;13.780;2023-05-15T08:33:03;18.50;1.00
6018;DHT22;3037;51.068;13.780;2023-05-15T08:35:29;18.20;1.00
6018;DHT22;3037;51.068;13.780;2023-05-15T08:37:56;18.20;1.00
6018;DHT22;3037;51.068;13.780;2023-05-15T08:40:22;18.40;1.00
6018;DHT22;3037;51.068;13.780;2023-05-15T08:42:52;18.30;1.00
6018;DHT22;3037;51.068;13.780;2023-05-15T08:45:19;18.40;1.00
6018;DHT22;3037;51.068;13.780;2023-05-15T08:47:45;18.40;1.00
6018;DHT22;3037;51.068;13.780;2023-05-15T08:50:17;18.40;1.00
6018;DHT22;3037;51.068;13.780;2023-05-15T08:52:44;18.40;1.00
6018;DHT22;3037;51.068;13.780;2023-05-15T08:55:15;18.60;1.00
6018;DHT22;3037;51.068;13.780;2023-05-15T08:57:41;18.50;1.00
6018;DHT22;3037;51.068;13.780;2023-05-15T09:00:07;18.30;1.00
6018;DHT22;3037;51.068;13.780;2023-05-15T09:02:37;18.40;1.00
6018;DHT22;3037;51.068;13.780;2023-05-15T09:05:04;18.50;1.00
6018;DHT22;3037;51.068;13.780;2023-05-15T09:07:30;18.50;1.00
6018;DHT22;3037;51.068;13.780;2023-05-15T09:09:56;18.50;1.00
6018;DHT22;3037;51.068;13.780;2023-05-15T09:12:23;18.40;1.00
6018;DHT22;3037;51.068;13.780;2023-05-15T09:14:49;18.70;1.00
6018;DHT22;3037;51.068;13.780;2023-05-15T09:17:15;18.80;1.00
6018;DHT22;3037;51.068;13.780;2023-05-15T09:19:41;18.90;1.00
6018;DHT22;3037;51.068;13.780;2023-05-15T09:24:43;18.90;1.00
6018;DHT22;3037;51.068;13.780;2023-05-15T09:27:09;19.00;1.00
6018;DHT22;3037;51.068;13.780;2023-05-15T09:29:36;19.50;1.00
6018;DHT22;3037;51.068;13.780;2023-05-15T09:32:07;19.40;1.00
6018;DHT22;3037;51.068;13.780;2023-05-15T09:34:42;20.00;1.00
6018;DHT22;3037;51.068;13.780;2023-05-15T09:37:11;20.10;1.00
6018;DHT22;3037;51.068;13.780;2023-05-15T09:39:41;20.80;1.00
6018;DHT22;3037;51.068;13.780;2023-05-15T09:42:09;20.80;1.00
6018;DHT22;3037;51.068;13.780;2023-05-15T09:44:34;21.40;1.00
6018;DHT22;3037;51.068;13.780;2023-05-15T09:47:00;21.80;1.00
6018;DHT22;3037;51.068;13.780;2023-05-15T09:49:27;21.60;1.00
6018;DHT22;3037;51.068;13.780;2023-05-15T09:51:56;22.20;1.00
6018;DHT22;3037;51.068;13.780;2023-05-15T09:54:23;21.90;1.00
6018;DHT22;3037;51.068;13.780;2023-05-15T09:56:49;22.70;1.00
6018;DHT22;3037;51.068;13.780;2023-05-15T09:59:18;23.10;1.00
6018;DHT22;3037;51.068;13.780;2023-05-15T10:01:49;22.40;1.00
6018;DHT22;3037;51.068;13.780;2023-05-15T10:04:15;22.50;99.90
6018;DHT22;3037;51.068;13.780;2023-05-15T10:06:42;23.00;99.90
6018;DHT22;3037;51.068;13.780;2023-05-15T10:09:09;23.30;1.00
6018;DHT22;3037;51.068;13.780;2023-05-15T10:11:40;23.10;1.00
6018;DHT22;3037;51.068;13.780;2023-05-15T10:14:09;23.10;1.00
6018;DHT22;3037;51.068;13.780;2023-05-15T10:16:36;23.00;1.00
6018;DHT22;3037;51.068;13.780;2023-05-15T10:19:07;22.30;1.00
6018;DHT22;3037;51.068;13.780;2023-05-15T10:21:36;22.10;1.00
6018;DHT22;3037;51.068;13.780;2023-05-15T10:24:03;22.20;1.00
6018;DHT22;3037;51.068;13.780;2023-05-15T10:26:40;23.00;1.00
6018;DHT22;3037;51.068;13.780;2023-05-15T10:29:09;23.50;1.00
6018;DHT22;3037;51.068;13.780;2023-05-15T10:31:35;23.50;1.00
6018;DHT22;3037;51.068;13.780;2023-05-15T10:34:05;23.80;1.00
6018;DHT22;3037;51.068;13.780;2023-05-15T10:36:32;24.10;1.00
6018;DHT22;3037;51.068;13.780;2023-05-15T10:39:03;23.90;1.00
6018;DHT22;3037;51.068;13.780;2023-05-15T10:41:29;24.40;1.00
6018;DHT22;3037;51.068;13.780;2023-05-15T10:43:59;24.50;1.00
6018;DHT22;3037;51.068;13.780;2023-05-15T10:46:29;24.70;1.00
6018;DHT22;3037;51.068;13.780;2023-05-15T10:48:57;25.00;1.00
6018;DHT22;3037;51.068;13.780;2023-05-15T10:51:29;25.20;1.00
6018;DHT22;3037;51.068;13.780;2023-05-15T10:53:56;26.00;1.00
6018;DHT22;3037;51.068;13.780;2023-05-15T10:56:36;25.90;1.00
6018;DHT22;3037;51.068;13.780;2023-05-15T10:59:07;26.10;1.00
6018;DHT22;3037;51.068;13.780;2023-05-15T11:01:37;25.90;1.00
6018;DHT22;3037;51.068;13.780;2023-05-15T11:06:40;25.40;1.00
6018;DHT22;3037;51.068;13.780;2023-05-15T11:11:57;26.60;1.00
6018;DHT22;3037;51.068;13.780;2023-05-15T11:14:27;26.90;1.00
6018;DHT22;3037;51.068;13.780;2023-05-15T11:25:02;27.60;1.00
6018;DHT22;3037;51.068;13.780;2023-05-15T11:27:37;27.70;1.00
6018;DHT22;3037;51.068;13.780;2023-05-15T11:32:39;26.50;1.00
6018;DHT22;3037;51.068;13.780;2023-05-15T11:35:19;26.80;1.00
6018;DHT22;3037;51.068;13.780;2023-05-15T11:37:50;26.90;1.00
6018;DHT22;3037;51.068;13.780;2023-05-15T11:40:29;27.10;1.00
6018;DHT22;3037;51.068;13.780;2023-05-15T11:43:03;27.30;1.00
6018;DHT22;3037;51.068;13.780;2023-05-15T11:45:31;26.80;1.00
6018;DHT22;3037;51.068;13.780;2023-05-15T11:47:59;26.10;1.00
6018;DHT22;3037;51.068;13.780;2023-05-15T11:50:26;25.50;1.00
6018;DHT22;3037;51.068;13.780;2023-05-15T11:52:52;24.10;1.00
6018;DHT22;3037;51.068;13.780;2023-05-15T11:55:18;23.50;1.00
6018;DHT22;3037;51.068;13.780;2023-05-15T11:57:47;22.90;1.00
6018;DHT22;3037;51.068;13.780;2023-05-15T12:00:13;22.00;1.00
6018;DHT22;3037;51.068;13.780;2023-05-15T12:02:39;21.50;1.00
6018;DHT22;3037;51.068;13.780;2023-05-15T12:05:08;20.60;1.00
6018;DHT22;3037;51.068;13.780;2023-05-15T12:07:51;20.10;1.00
6018;DHT22;3037;51.068;13.780;2023-05-15T12:10:17;20.20;1.00
6018;DHT22;3037;51.068;13.780;2023-05-15T12:12:43;19.80;1.00
6018;DHT22;3037;51.068;13.780;2023-05-15T12:15:11;19.50;1.00
6018;DHT22;3037;51.068;13.780;2023-05-15T12:17:40;19.10;1.00
6018;DHT22;3037;51.068;13.780;2023-05-15T12:20:07;18.90;11.70
6018;DHT22;3037;51.068;13.780;2023-05-15T12:22:40;18.70;47.90
6018;DHT22;3037;51.068;13.780;2023-05-15T12:25:10;18.50;90.70
6018;DHT22;3037;51.068;13.780;2023-05-15T12:27:38;18.70;94.00
6018;DHT22;3037;51.068;13.780;2023-05-15T12:30:05;18.60;96.80
6018;DHT22;3037;51.068;13.780;2023-05-15T12:32:34;18.80;1.00
6018;DHT22;3037;51.068;13.780;2023-05-15T12:35:03;18.60;1.00
6018;DHT22;3037;51.068;13.780;2023-05-15T12:37:34;18.70;1.00
6018;DHT22;3037;51.068;13.780;2023-05-15T12:40:01;18.80;1.00
6018;DHT22;3037;51.068;13.780;2023-05-15T12:42:27;18.80;1.00
6018;DHT22;3037;51.068;13.780;2023-05-15T12:44:54;19.00;1.00
6018;DHT22;3037;51.068;13.780;2023-05-15T12:47:26;19.80;1.00
6018;DHT22;3037;51.068;13.780;2023-05-15T12:49:58;19.30;1.00
6018;DHT22;3037;51.068;13.780;2023-05-15T12:52:27;19.70;1.00
6018;DHT22;3037;51.068;13.780;2023-05-15T12:54:53;20.60;1.00
6018;DHT22;3037;51.068;13.780;2023-05-15T12:57:19;21.10;1.00
6018;DHT22;3037;51.068;13.780;2023-05-15T12:59:45;21.90;1.00
6018;DHT22;3037;51.068;13.780;2023-05-15T13:02:11;22.90;1.00
6018;DHT22;3037;51.068;13.780;2023-05-15T13:04:37;23.60;1.00
6018;DHT22;3037;51.068;13.780;2023-05-15T13:07:03;23.60;1.00
6018;DHT22;3037;51.068;13.780;2023-05-15T13:09:29;23.80;1.00
6018;DHT22;3037;51.068;13.780;2023-05-15T13:11:55;23.10;1.00
6018;DHT22;3037;51.068;13.780;2023-05-15T13:14:21;23.10;1.00
6018;DHT22;3037;51.068;13.780;2023-05-15T13:16:51;22.30;1.00
6018;DHT22;3037;51.068;13.780;2023-05-15T13:19:17;21.30;1.00
6018;DHT22;3037;51.068;13.780;2023-05-15T13:21:42;20.90;1.00
6018;DHT22;3037;51.068;13.780;2023-05-15T13:24:09;20.00;1.00
6018;DHT22;3037;51.068;13.780;2023-05-15T13:26:35;19.40;1.00
6018;DHT22;3037;51.068;13.780;2023-05-15T13:29:01;19.10;1.00
6018;DHT22;3037;51.068;13.780;2023-05-15T13:31:26;18.50;1.00
6018;DHT22;3037;51.068;13.780;2023-05-15T13:33:52;18.50;99.90
6018;DHT22;3037;51.068;13.780;2023-05-15T13:36:17;18.20;1.00
6018;DHT22;3037;51.068;13.780;2023-05-15T13:38:43;18.30;99.90
6018;DHT22;3037;51.068;13.780;2023-05-15T13:41:08;18.30;1.00
6018;DHT22;3037;51.068;13.780;2023-05-15T13:43:34;18.40;99.90
6018;DHT22;3037;51.068;13.780;2023-05-15T13:45:59;18.40;96.10
6018;DHT22;3037;51.068;13.780;2023-05-15T13:48:25;18.20;99.90
6018;DHT22;3037;51.068;13.780;2023-05-15T13:50:50;18.30;99.90
6018;DHT22;3037;51.068;13.780;2023-05-15T13:53:16;18.50;99.90
6018;DHT22;3037;51.068;13.780;2023-05-15T13:55:45;18.90;99.90
6018;DHT22;3037;51.068;13.780;2023-05-15T13:58:11;18.90;99.90
6018;DHT22;3037;51.068;13.780;2023-05-15T14:00:38;19.10;99.90
6018;DHT22;3037;51.068;13.780;2023-05-15T14:03:04;19.10;99.90
6018;DHT22;3037;51.068;13.780;2023-05-15T14:05:31;19.40;99.90
6018;DHT22;3037;51.068;13.780;2023-05-15T14:07:56;19.20;99.90
6018;DHT22;3037;51.068;13.780;2023-05-15T14:10:22;19.20;99.90
6018;DHT22;3037;51.068;13.780;2023-05-15T14:12:48;19.20;99.90
6018;DHT22;3037;51.068;13.780;2023-05-15T14:15:14;19.10;99.90
6018;DHT22;3037;51.068;13.780;2023-05-15T14:17:40;19.30;99.90
6018;DHT22;3037;51.068;13.780;2023-05-15T14:20:06;19.60;99.90
6018;DHT22;3037;51.068;13.780;2023-05-15T14:22:34;19.90;99.90
6018;DHT22;3037;51.068;13.780;2023-05-15T14:25:01;20.00;99.90
6018;DHT22;3037;51.068;13.780;2023-05-15T14:27:28;19.90;99.90
6018;DHT22;3037;51.068;13.780;2023-05-15T14:29:53;20.00;99.90
6018;DHT22;3037;51.068;13.780;2023-05-15T14:32:21;20.70;99.90
6018;DHT22;3037;51.068;13.780;2023-05-15T14:34:46;21.10;99.90
6018;DHT22;3037;51.068;13.780;2023-05-15T14:37:12;20.90;93.60
6018;DHT22;3037;51.068;13.780;2023-05-15T14:39:37;20.60;99.90
6018;DHT22;3037;51.068;13.780;2023-05-15T14:42:03;21.00;99.90
6018;DHT22;3037;51.068;13.780;2023-05-15T14:44:29;21.10;99.90
6018;DHT22;3037;51.068;13.780;2023-05-15T14:47:08;21.00;99.90
6018;DHT22;3037;51.068;13.780;2023-05-15T14:49:34;21.30;94.50
6018;DHT22;3037;51.068;13.780;2023-05-15T14:52:00;21.00;98.30
6018;DHT22;3037;51.068;13.780;2023-05-15T14:54:25;20.80;96.80
6018;DHT22;3037;51.068;13.780;2023-05-15T14:56:51;20.80;93.80
6018;DHT22;3037;51.068;13.780;2023-05-15T14:59:16;21.00;90.20
6018;DHT22;3037;51.068;13.780;2023-05-15T15:01:42;21.10;80.30
6018;DHT22;3037;51.068;13.780;2023-05-15T15:04:07;21.20;71.30
6018;DHT22;3037;51.068;13.780;2023-05-15T15:06:33;21.10;70.00
6018;DHT22;3037;51.068;13.780;2023-05-15T15:08:58;21.30;53.20
6018;DHT22;3037;51.068;13.780;2023-05-15T15:11:24;21.30;49.00
6018;DHT22;3037;51.068;13.780;2023-05-15T15:13:49;21.30;43.00
6018;DHT22;3037;51.068;13.780;2023-05-15T15:16:15;21.40;45.70
6018;DHT22;3037;51.068;13.780;2023-05-15T15:18:40;21.70;42.20
6018;DHT22;3037;51.068;13.780;2023-05-15T15:21:06;21.50;47.80
6018;DHT22;3037;51.068;13.780;2023-05-15T15:23:31;21.40;42.00
6018;DHT22;3037;51.068;13.780;2023-05-15T15:25:57;21.10;45.20
6018;DHT22;3037;51.068;13.780;2023-05-15T15:28:22;20.60;46.60
6018;DHT22;3037;51.068;13.780;2023-05-15T15:30:48;20.50;42.80
6018;DHT22;3037;51.068;13.780;2023-05-15T15:33:13;20.20;56.60
6018;DHT22;3037;51.068;13.780;2023-05-15T15:35:39;19.90;49.40
6018;DHT22;3037;51.068;13.780;2023-05-15T15:38:05;19.90;53.60
6018;DHT22;3037;51.068;13.780;2023-05-15T15:40:30;19.90;59.90
6018;DHT22;3037;51.068;13.780;2023-05-15T15:42:56;19.80;72.50
6018;DHT22;3037;51.068;13.780;2023-05-15T15:45:21;19.70;91.20
6018;DHT22;3037;51.068;13.780;2023-05-15T15:47:47;19.50;73.80
6018;DHT22;3037;51.068;13.780;2023-05-15T15:50:12;19.60;70.60
6018;DHT22;3037;51.068;13.780;2023-05-15T15:52:38;19.50;75.60
6018;DHT22;3037;51.068;13.780;2023-05-15T15:55:04;19.30;99.90
6018;DHT22;3037;51.068;13.780;2023-05-15T15:57:29;19.10;98.50
6018;DHT22;3037;51.068;13.780;2023-05-15T15:59:55;18.80;99.90
6018;DHT22;3037;51.068;13.780;2023-05-15T16:02:21;18.70;1.00
6018;DHT22;3037;51.068;13.780;2023-05-15T16:04:46;18.30;1.00
6018;DHT22;3037;51.068;13.780;2023-05-15T16:07:12;18.10;99.90
6018;DHT22;3037;51.068;13.780;2023-05-15T16:09:37;17.90;99.90
6018;DHT22;3037;51.068;13.780;2023-05-15T16:12:03;17.20;1.00
6018;DHT22;3037;51.068;13.780;2023-05-15T16:14:28;17.00;99.90
6018;DHT22;3037;51.068;13.780;2023-05-15T16:16:56;16.60;99.90